createdAt,value
2019-03-31T00:00:35.423Z,74.3
2019-03-31T00:01:26.956Z,74.3
2019-03-31T00:02:17.923Z,74.2
2019-03-31T00:03:07.004Z,74.3
2019-03-31T00:03:57.005Z,74.2
2019-03-31T00:04:46.956Z,74.2
2019-03-31T00:05:37.661Z,74.1
2019-03-31T00:06:28.032Z,74.1
2019-03-31T00:07:17.631Z,74.1
2019-03-31T00:08:07.027Z,74
2019-03-31T00:08:57.037Z,74.1
2019-03-31T00:09:47.639Z,74.2
2019-03-31T00:10:37.629Z,74.2
2019-03-31T00:11:27.463Z,74.3
2019-03-31T00:12:18.220Z,74.5
2019-03-31T00:13:07.595Z,74.5
2019-03-31T00:13:57.531Z,74.6
2019-03-31T00:14:48.714Z,74.5
2019-03-31T00:15:38.793Z,74.5
2019-03-31T00:16:29.713Z,74.7
2019-03-31T00:17:20.062Z,74.6
2019-03-31T00:18:09.625Z,74.5
2019-03-31T00:18:59.583Z,74.5
2019-03-31T00:19:49.514Z,74.6
2019-03-31T00:20:39.482Z,74.6
2019-03-31T00:21:31.013Z,74.6
2019-03-31T00:22:19.625Z,74.7
2019-03-31T00:23:09.629Z,75
2019-03-31T00:23:59.448Z,74.8
2019-03-31T00:24:49.520Z,74.8
2019-03-31T00:25:42.337Z,74.9
2019-03-31T00:26:34.256Z,75
2019-03-31T00:27:21.838Z,74.8
2019-03-31T00:28:12.555Z,74.9
2019-03-31T00:29:03.289Z,75.1
2019-03-31T00:29:53.689Z,75.1
2019-03-31T00:30:44.200Z,75.1
2019-03-31T00:31:34.061Z,75.2
2019-03-31T00:32:25.254Z,75.3
2019-03-31T00:33:15.072Z,75.3
2019-03-31T00:34:09.224Z,75.4
2019-03-31T00:34:59.033Z,75.5
2019-03-31T00:35:48.994Z,75.5
2019-03-31T00:36:41.073Z,75.6
2019-03-31T00:37:29.052Z,75.7
2019-03-31T00:38:20.417Z,75.7
2019-03-31T00:39:09.801Z,75.6
2019-03-31T00:39:58.976Z,75.6
2019-03-31T00:40:49.024Z,75.6
2019-03-31T00:41:39.108Z,75.7
2019-03-31T00:42:29.895Z,75.6
2019-03-31T00:43:19.030Z,75.6
2019-03-31T00:44:09.056Z,75.7
2019-03-31T00:44:59.054Z,75.7
2019-03-31T00:45:49.034Z,75.7
2019-03-31T00:46:40.272Z,75.6
2019-03-31T00:47:29.796Z,75.7
2019-03-31T00:48:19.080Z,75.7
2019-03-31T00:49:09.215Z,75.8
2019-03-31T00:49:59.064Z,75.8
2019-03-31T00:50:49.074Z,75.7
2019-03-31T00:51:39.380Z,75.8
2019-03-31T00:52:29.090Z,75.8
2019-03-31T00:53:19.077Z,75.8
2019-03-31T00:54:09.395Z,75.9
2019-03-31T00:54:59.112Z,75.9
2019-03-31T00:55:49.012Z,75.9
2019-03-31T00:56:41.096Z,76
2019-03-31T00:57:29.039Z,76
2019-03-31T00:58:19.143Z,76
2019-03-31T00:59:09.241Z,76
2019-03-31T00:59:59.096Z,75.9
2019-03-31T01:00:49.059Z,75.9
2019-03-31T01:01:40.543Z,76
2019-03-31T01:02:30.481Z,76
2019-03-31T01:03:20.440Z,76.1
2019-03-31T01:04:10.521Z,76.2
2019-03-31T01:05:00.718Z,76.2
2019-03-31T01:05:50.943Z,76.3
2019-03-31T01:06:40.810Z,76.4
2019-03-31T01:07:30.404Z,76.5
2019-03-31T01:08:20.510Z,76.5
2019-03-31T01:09:10.812Z,76.5
2019-03-31T01:10:00.527Z,76.5
2019-03-31T01:10:50.455Z,76.5
2019-03-31T01:11:40.904Z,76.4
2019-03-31T01:12:30.544Z,76.5
2019-03-31T01:13:20.513Z,76.6
2019-03-31T01:14:10.553Z,76.5
2019-03-31T01:15:00.591Z,76.5
2019-03-31T01:15:50.518Z,76.6
2019-03-31T01:16:43.402Z,76.7
2019-03-31T01:17:30.776Z,76.7
2019-03-31T01:18:20.515Z,76.6
2019-03-31T01:19:10.571Z,76.7
2019-03-31T01:20:01.399Z,76.7
2019-03-31T01:20:51.644Z,76.7
2019-03-31T01:21:41.356Z,76.7
2019-03-31T01:22:31.233Z,76.6
2019-03-31T01:23:21.428Z,76.6
2019-03-31T01:24:11.712Z,76.6
2019-03-31T01:25:01.233Z,76.6
2019-03-31T01:25:51.222Z,76.6
2019-03-31T01:26:43.617Z,76.6
2019-03-31T01:27:31.310Z,76.7
2019-03-31T01:28:21.334Z,76.6
2019-03-31T01:29:11.274Z,76.6
2019-03-31T01:30:01.390Z,76.5
2019-03-31T01:30:51.656Z,76.5
2019-03-31T01:31:49.929Z,76.6
2019-03-31T01:32:32.380Z,76.6
2019-03-31T01:33:22.355Z,76.7
2019-03-31T01:34:12.288Z,76.7
2019-03-31T01:35:02.292Z,76.6
2019-03-31T01:35:52.306Z,76.6
2019-03-31T01:36:43.905Z,76.7
2019-03-31T01:37:32.406Z,76.6
2019-03-31T01:38:22.556Z,76.7
2019-03-31T01:39:12.510Z,76.8
2019-03-31T01:40:02.534Z,76.8
2019-03-31T01:40:52.541Z,76.9
2019-03-31T01:41:42.539Z,76.8
2019-03-31T01:42:39.990Z,76.8
2019-03-31T01:43:22.940Z,76.9
2019-03-31T01:44:12.612Z,76.9
2019-03-31T01:45:02.608Z,77
2019-03-31T01:45:52.638Z,77
2019-03-31T01:46:44.385Z,77
2019-03-31T01:47:34.351Z,76.9
2019-03-31T01:48:22.569Z,77
2019-03-31T01:49:12.568Z,77
2019-03-31T01:50:02.513Z,77
2019-03-31T01:50:52.513Z,77
2019-03-31T01:51:42.546Z,76.9
2019-03-31T01:52:35.016Z,76.8
2019-03-31T01:53:22.481Z,76.8
2019-03-31T01:54:12.581Z,76.9
2019-03-31T01:55:02.560Z,76.9
2019-03-31T01:55:52.528Z,76.9
2019-03-31T01:56:44.756Z,77
2019-03-31T01:57:34.357Z,77
2019-03-31T01:58:22.644Z,77.1
2019-03-31T01:59:12.588Z,77.2
2019-03-31T02:00:02.538Z,77.2
2019-03-31T02:00:52.527Z,77.3
2019-03-31T02:01:43.951Z,77.3
2019-03-31T02:02:36.378Z,77.2
2019-03-31T02:03:25.402Z,77.1
2019-03-31T02:04:15.407Z,77.2
2019-03-31T02:05:05.787Z,77.2
2019-03-31T02:05:56.758Z,77.2
2019-03-31T02:06:47.328Z,77.3
2019-03-31T02:07:37.418Z,77.4
2019-03-31T02:08:27.208Z,77.4
2019-03-31T02:09:17.199Z,77.4
2019-03-31T02:10:07.254Z,77.4
2019-03-31T02:10:57.201Z,77.4
2019-03-31T02:11:47.416Z,77.5
2019-03-31T02:12:40.301Z,77.5
2019-03-31T02:13:30.966Z,77.5
2019-03-31T02:14:24.943Z,77.5
2019-03-31T02:15:15.059Z,77.6
2019-03-31T02:16:05.526Z,77.6
2019-03-31T02:16:55.509Z,77.7
2019-03-31T02:17:45.931Z,77.7
2019-03-31T02:18:39.877Z,77.7
2019-03-31T02:19:27.064Z,77.6
2019-03-31T02:20:17.134Z,77.6
2019-03-31T02:21:07.278Z,77.6
2019-03-31T02:21:58.249Z,77.6
2019-03-31T02:22:48.358Z,77.6
2019-03-31T02:23:40.701Z,77.6
2019-03-31T02:24:28.249Z,77.7
2019-03-31T02:25:18.331Z,77.7
2019-03-31T02:26:09.330Z,77.7
2019-03-31T02:26:59.339Z,77.7
2019-03-31T02:27:49.301Z,77.7
2019-03-31T02:28:40.115Z,77.7
2019-03-31T02:29:29.779Z,77.8
2019-03-31T02:30:19.625Z,77.8
2019-03-31T02:31:09.590Z,77.8
2019-03-31T02:32:00.446Z,77.6
2019-03-31T02:32:50.661Z,77.7
2019-03-31T02:33:42.106Z,77.8
2019-03-31T02:34:31.840Z,77.9
2019-03-31T02:35:21.810Z,78
2019-03-31T02:36:15.677Z,78.1
2019-03-31T02:37:05.682Z,78.1
2019-03-31T02:37:57.087Z,78.1
2019-03-31T02:38:47.759Z,78.2
2019-03-31T02:39:38.033Z,78.3
2019-03-31T02:40:27.969Z,78.3
2019-03-31T02:41:18.037Z,78.3
2019-03-31T02:42:07.973Z,78.4
2019-03-31T02:42:58.021Z,78.3
2019-03-31T02:43:48.161Z,78.3
2019-03-31T02:44:37.959Z,78.2
2019-03-31T02:45:27.921Z,78.2
2019-03-31T02:46:18.062Z,78.3
2019-03-31T02:47:11.775Z,78.3
2019-03-31T02:48:01.722Z,78.3
2019-03-31T02:48:51.818Z,78.3
2019-03-31T02:49:42.139Z,78.2
2019-03-31T02:50:31.767Z,78.2
2019-03-31T02:51:21.829Z,78.2
2019-03-31T02:52:11.820Z,78.2
2019-03-31T02:53:01.810Z,78.2
2019-03-31T02:53:51.728Z,78.2
2019-03-31T02:54:41.893Z,78.2
2019-03-31T02:55:31.790Z,78.3
2019-03-31T02:56:22.020Z,78.4
2019-03-31T02:57:11.821Z,78.4
2019-03-31T02:58:01.821Z,78.4
2019-03-31T02:58:51.777Z,78.4
2019-03-31T02:59:43.042Z,78.5
2019-03-31T03:00:32.947Z,78.5
2019-03-31T03:01:23.109Z,78.5
2019-03-31T03:02:12.926Z,78.5
2019-03-31T03:03:04.040Z,78.5
2019-03-31T03:03:53.937Z,78.5
2019-03-31T03:04:44.845Z,78.5
2019-03-31T03:05:34.879Z,78.5
2019-03-31T03:06:27.360Z,78.4
2019-03-31T03:07:17.335Z,78.4
2019-03-31T03:08:07.305Z,78.4
2019-03-31T03:08:57.194Z,78.4
2019-03-31T03:09:48.188Z,78.3
2019-03-31T03:10:37.162Z,78.3
2019-03-31T03:11:27.168Z,78.3
2019-03-31T03:12:17.545Z,78.2
2019-03-31T03:13:07.653Z,78.3
2019-03-31T03:13:57.683Z,78.3
2019-03-31T03:14:47.796Z,78.3
2019-03-31T03:15:37.964Z,78.2
2019-03-31T03:16:27.918Z,78.2
2019-03-31T03:17:17.946Z,78.2
2019-03-31T03:18:08.200Z,78.2
2019-03-31T03:18:57.958Z,78.3
2019-03-31T03:19:49.961Z,78.6
2019-03-31T03:20:37.929Z,78.7
2019-03-31T03:21:29.102Z,78.7
2019-03-31T03:22:18.935Z,78.7
2019-03-31T03:23:08.872Z,78.8
2019-03-31T03:23:58.865Z,78.7
2019-03-31T03:24:51.179Z,78.7
2019-03-31T03:25:54.800Z,78.8
2019-03-31T03:26:28.969Z,78.7
2019-03-31T03:27:19.227Z,78.7
2019-03-31T03:28:09.121Z,78.7
2019-03-31T03:28:59.233Z,78.8
2019-03-31T03:29:51.751Z,78.8
2019-03-31T03:30:39.212Z,78.8
2019-03-31T03:31:29.176Z,78.9
2019-03-31T03:32:19.144Z,78.9
2019-03-31T03:33:16.148Z,79
2019-03-31T03:33:59.164Z,79.1
2019-03-31T03:34:52.819Z,79.1
2019-03-31T03:35:40.168Z,79.1
2019-03-31T03:36:30.157Z,79.1
2019-03-31T03:37:20.224Z,79
2019-03-31T03:38:10.143Z,79
2019-03-31T03:39:00.541Z,79
2019-03-31T03:39:52.835Z,79.1
2019-03-31T03:40:40.167Z,79
2019-03-31T03:41:30.174Z,79
2019-03-31T03:42:20.271Z,79
2019-03-31T03:43:10.146Z,79
2019-03-31T03:44:02.429Z,78.9
2019-03-31T03:44:51.246Z,79
2019-03-31T03:45:40.178Z,79.1
2019-03-31T03:46:30.243Z,79.1
2019-03-31T03:47:20.248Z,79.2
2019-03-31T03:48:10.157Z,79.2
2019-03-31T03:49:00.843Z,79.2
2019-03-31T03:49:50.356Z,79.2
2019-03-31T03:50:40.166Z,79.2
2019-03-31T03:51:30.440Z,79.2
2019-03-31T03:52:21.395Z,79.3
2019-03-31T03:53:11.724Z,79.3
2019-03-31T03:54:01.642Z,79.3
2019-03-31T03:54:51.755Z,79.4
2019-03-31T03:55:41.669Z,79.4
2019-03-31T03:56:31.708Z,79.5
2019-03-31T03:57:21.734Z,79.5
2019-03-31T03:58:11.680Z,79.6
2019-03-31T03:59:01.641Z,79.6
2019-03-31T03:59:51.731Z,79.6
2019-03-31T04:00:41.658Z,79.5
2019-03-31T04:01:31.736Z,79.5
2019-03-31T04:02:21.722Z,79.6
2019-03-31T04:03:28.537Z,79.5
2019-03-31T04:04:01.658Z,79.5
2019-03-31T04:04:51.658Z,79.5
2019-03-31T04:05:41.714Z,79.6
2019-03-31T04:06:31.738Z,79.6
2019-03-31T04:07:21.783Z,79.5
2019-03-31T04:08:11.677Z,79.5
2019-03-31T04:09:03.482Z,79.5
2019-03-31T04:09:51.708Z,79.5
2019-03-31T04:10:41.658Z,79.5
2019-03-31T04:11:31.705Z,79.6
2019-03-31T04:12:21.668Z,79.6
2019-03-31T04:13:11.657Z,79.8
2019-03-31T04:14:02.109Z,79.8
2019-03-31T04:14:51.967Z,79.9
2019-03-31T04:15:41.965Z,79.9
2019-03-31T04:16:31.926Z,80.1
2019-03-31T04:17:21.971Z,80.1
2019-03-31T04:18:11.872Z,79.7
2019-03-31T04:19:04.129Z,80
2019-03-31T04:19:53.674Z,80
2019-03-31T04:20:43.662Z,79.9
2019-03-31T04:21:33.705Z,79.9
2019-03-31T04:22:23.740Z,79.9
2019-03-31T04:23:13.711Z,79.9
2019-03-31T04:24:03.715Z,80
2019-03-31T04:24:53.749Z,80
2019-03-31T04:25:43.713Z,80
2019-03-31T04:26:33.740Z,79.9
2019-03-31T04:27:23.708Z,79.9
2019-03-31T04:28:13.801Z,79.9
2019-03-31T04:29:04.244Z,80
2019-03-31T04:29:53.822Z,80
2019-03-31T04:30:43.646Z,80.1
2019-03-31T04:31:33.704Z,80.1
2019-03-31T04:32:23.684Z,80.1
2019-03-31T04:33:13.691Z,80.2
2019-03-31T04:34:03.712Z,80.3
2019-03-31T04:34:53.713Z,80.3
2019-03-31T04:35:43.791Z,80.3
2019-03-31T04:36:33.711Z,80.3
2019-03-31T04:37:23.742Z,80.4
2019-03-31T04:38:13.681Z,80.3
2019-03-31T04:39:05.640Z,80.4
2019-03-31T04:39:53.693Z,80.4
2019-03-31T04:40:43.744Z,80.5
2019-03-31T04:41:33.688Z,80.6
2019-03-31T04:42:23.679Z,80.6
2019-03-31T04:43:13.685Z,80.6
2019-03-31T04:44:03.698Z,80.5
2019-03-31T04:44:53.656Z,80.5
2019-03-31T04:45:43.787Z,80.5
2019-03-31T04:46:33.742Z,80.4
2019-03-31T04:47:23.933Z,80.4
2019-03-31T04:48:14.213Z,80.3
2019-03-31T04:49:04.382Z,80.2
2019-03-31T04:49:54.320Z,80.3
2019-03-31T04:50:44.261Z,80.3
2019-03-31T04:51:34.212Z,80.3
2019-03-31T04:52:24.212Z,80.3
2019-03-31T04:53:14.219Z,80.3
2019-03-31T04:54:04.823Z,80.3
2019-03-31T04:54:54.185Z,80.3
2019-03-31T04:55:44.190Z,80.2
2019-03-31T04:56:34.174Z,80.2
2019-03-31T04:57:24.189Z,80.2
2019-03-31T04:58:14.249Z,80.2
2019-03-31T04:59:06.053Z,80.3
2019-03-31T04:59:54.268Z,80.3
2019-03-31T05:00:44.308Z,80.3
2019-03-31T05:01:34.226Z,80.2
2019-03-31T05:02:27.106Z,80.1
2019-03-31T05:03:14.241Z,80.1
2019-03-31T05:04:06.481Z,80.2
2019-03-31T05:04:54.283Z,80.3
2019-03-31T05:05:44.213Z,80.3
2019-03-31T05:06:34.202Z,80.3
2019-03-31T05:07:24.220Z,80.4
2019-03-31T05:08:14.230Z,80.4
2019-03-31T05:09:07.362Z,80.4
2019-03-31T05:09:54.227Z,80.4
2019-03-31T05:10:45.856Z,80.5
2019-03-31T05:11:35.914Z,80.5
2019-03-31T05:12:25.858Z,80.5
2019-03-31T05:13:15.848Z,80.5
2019-03-31T05:14:07.832Z,80.5
2019-03-31T05:14:55.828Z,80.5
2019-03-31T05:15:45.875Z,80.5
2019-03-31T05:16:35.854Z,80.5
2019-03-31T05:17:25.877Z,80.5
2019-03-31T05:18:15.928Z,80.6
2019-03-31T05:19:08.099Z,80.6
2019-03-31T05:19:58.069Z,80.6
2019-03-31T05:20:48.097Z,80.7
2019-03-31T05:21:38.082Z,80.7
2019-03-31T05:22:28.170Z,80.7
2019-03-31T05:23:18.071Z,80.7
2019-03-31T05:24:09.574Z,80.7
2019-03-31T05:24:58.049Z,80.7
2019-03-31T05:25:48.067Z,80.7
2019-03-31T05:26:38.037Z,80.7
2019-03-31T05:27:28.059Z,80.7
2019-03-31T05:28:18.188Z,80.6
2019-03-31T05:29:10.264Z,80.6
2019-03-31T05:29:58.082Z,80.7
2019-03-31T05:30:48.105Z,80.8
2019-03-31T05:31:38.071Z,80.8
2019-03-31T05:32:29.879Z,80.8
2019-03-31T05:33:19.751Z,80.8
2019-03-31T05:34:18.713Z,80.9
2019-03-31T05:35:00.674Z,80.9
2019-03-31T05:35:50.430Z,81
2019-03-31T05:36:42.728Z,81.1
2019-03-31T05:37:32.635Z,81.1
2019-03-31T05:38:22.591Z,81.1
2019-03-31T05:39:12.860Z,81.1
2019-03-31T05:40:02.628Z,81.2
2019-03-31T05:40:52.610Z,81.1
2019-03-31T05:41:42.651Z,81
2019-03-31T05:42:32.593Z,81
2019-03-31T05:43:22.642Z,81
2019-03-31T05:44:12.603Z,81.1
2019-03-31T05:45:02.620Z,81.2
2019-03-31T05:45:52.709Z,81.2
2019-03-31T05:46:42.618Z,81.2
2019-03-31T05:47:32.616Z,81.2
2019-03-31T05:48:22.666Z,81.1
2019-03-31T05:49:12.607Z,81.5
2019-03-31T05:50:02.598Z,81.3
2019-03-31T05:50:52.653Z,81.4
2019-03-31T05:51:42.728Z,81.3
2019-03-31T05:52:32.647Z,81.3
2019-03-31T05:53:22.572Z,81.4
2019-03-31T05:54:13.963Z,81.4
2019-03-31T05:55:02.676Z,81.4
2019-03-31T05:55:52.617Z,81.3
2019-03-31T05:56:42.617Z,81.4
2019-03-31T05:57:32.642Z,81.5
2019-03-31T05:58:22.677Z,81.4
2019-03-31T05:59:15.017Z,81.3
2019-03-31T06:00:03.025Z,81.4
2019-03-31T06:00:52.906Z,81.4
2019-03-31T06:01:43.427Z,81.2
2019-03-31T06:02:33.580Z,81.3
2019-03-31T06:03:23.518Z,81.4
2019-03-31T06:04:15.747Z,81.3
2019-03-31T06:05:03.409Z,81.5
2019-03-31T06:05:53.464Z,81.9
2019-03-31T06:06:43.446Z,82
2019-03-31T06:07:33.464Z,82.1
2019-03-31T06:08:23.703Z,82.1
2019-03-31T06:09:13.610Z,82.1
2019-03-31T06:10:04.678Z,82.2
2019-03-31T06:10:54.737Z,82.2
2019-03-31T06:11:44.709Z,82.3
2019-03-31T06:12:34.825Z,82.2
2019-03-31T06:13:24.751Z,82.3
2019-03-31T06:14:14.719Z,82.3
2019-03-31T06:15:04.645Z,82.4
2019-03-31T06:15:54.661Z,82.4
2019-03-31T06:16:45.444Z,82.7
2019-03-31T06:17:35.181Z,82.6
2019-03-31T06:18:25.445Z,82.5
2019-03-31T06:19:18.566Z,82.7
2019-03-31T06:20:05.209Z,82.7
2019-03-31T06:20:55.190Z,82.8
2019-03-31T06:21:45.353Z,83
2019-03-31T06:22:35.922Z,83.1
2019-03-31T06:23:25.887Z,83.1
2019-03-31T06:24:18.058Z,83.1
2019-03-31T06:25:06.652Z,83.4
2019-03-31T06:25:56.085Z,83.4
2019-03-31T06:26:46.126Z,83.4
2019-03-31T06:27:36.094Z,83.5
2019-03-31T06:28:26.085Z,83.8
2019-03-31T06:29:16.337Z,83.8
2019-03-31T06:30:06.710Z,83.8
2019-03-31T06:30:56.604Z,83.7
2019-03-31T06:31:46.624Z,83.7
2019-03-31T06:32:36.566Z,83.7
2019-03-31T06:33:26.623Z,83.8
2019-03-31T06:34:16.661Z,83.9
2019-03-31T06:35:06.631Z,84
2019-03-31T06:35:56.622Z,84.1
2019-03-31T06:36:46.618Z,84.1
2019-03-31T06:37:36.621Z,84.2
2019-03-31T06:38:27.498Z,84.2
2019-03-31T06:39:17.482Z,84.4
2019-03-31T06:40:07.741Z,84.4
2019-03-31T06:40:57.421Z,84.5
2019-03-31T06:41:47.702Z,84.6
2019-03-31T06:42:37.523Z,84.6
2019-03-31T06:43:27.432Z,84.7
2019-03-31T06:44:17.573Z,84.8
2019-03-31T06:45:07.574Z,84.9
2019-03-31T06:45:57.490Z,85
2019-03-31T06:46:47.724Z,85.1
2019-03-31T06:47:37.617Z,85.2
2019-03-31T06:48:27.830Z,85.2
2019-03-31T06:49:17.578Z,85.3
2019-03-31T06:50:07.505Z,85.4
2019-03-31T06:50:57.524Z,85.5
2019-03-31T06:51:48.437Z,85.7
2019-03-31T06:52:38.053Z,85.8
2019-03-31T06:53:28.037Z,85.8
2019-03-31T06:54:18.094Z,85.9
2019-03-31T06:55:11.521Z,86
2019-03-31T06:56:01.799Z,86.1
2019-03-31T06:56:51.834Z,86.2
2019-03-31T06:57:41.838Z,86.3
2019-03-31T06:58:31.756Z,86.4
2019-03-31T06:59:21.780Z,86.5
2019-03-31T07:00:11.759Z,86.6
2019-03-31T07:01:01.905Z,86.7
2019-03-31T07:01:51.833Z,86.7
2019-03-31T07:02:41.781Z,86.8
2019-03-31T07:03:31.794Z,86.9
2019-03-31T07:04:21.758Z,86.9
2019-03-31T07:05:11.837Z,86.9
2019-03-31T07:06:01.792Z,87
2019-03-31T07:06:52.134Z,87.2
2019-03-31T07:07:42.037Z,87.1
2019-03-31T07:08:31.893Z,87.2
2019-03-31T07:09:22.109Z,87.3
2019-03-31T07:10:12.751Z,87.5
2019-03-31T07:11:04.086Z,87.4
2019-03-31T07:11:54.022Z,87.5
2019-03-31T07:12:43.976Z,87.5
2019-03-31T07:13:34.677Z,87.5
2019-03-31T07:14:26.841Z,87.6
2019-03-31T07:15:15.855Z,87.6
2019-03-31T07:16:05.943Z,87.7
2019-03-31T07:16:55.869Z,87.7
2019-03-31T07:17:45.828Z,87.7
2019-03-31T07:18:35.837Z,87.8
2019-03-31T07:19:28.260Z,87.8
2019-03-31T07:20:15.868Z,87.8
2019-03-31T07:21:06.084Z,87.8
2019-03-31T07:21:55.949Z,87.8
2019-03-31T07:22:45.858Z,87.8
2019-03-31T07:23:35.859Z,87.7
2019-03-31T07:24:28.954Z,87.8
2019-03-31T07:25:16.899Z,87.8
2019-03-31T07:26:07.103Z,87.8
2019-03-31T07:27:02.164Z,87.8
2019-03-31T07:27:54.936Z,87.8
2019-03-31T07:28:44.772Z,87.8
2019-03-31T07:29:37.547Z,87.8
2019-03-31T07:30:26.791Z,87.8
2019-03-31T07:31:17.982Z,87.7
2019-03-31T07:32:09.050Z,87.7
2019-03-31T07:32:59.003Z,87.6
2019-03-31T07:33:50.692Z,87.4
2019-03-31T07:34:42.531Z,87.3
2019-03-31T07:35:33.680Z,87.2
2019-03-31T07:36:25.975Z,87
2019-03-31T07:37:16.491Z,86.9
2019-03-31T07:38:07.809Z,86.9
2019-03-31T07:38:59.159Z,86.8
2019-03-31T07:39:50.952Z,86.7
2019-03-31T07:40:41.851Z,86.6
2019-03-31T07:41:33.996Z,86.6
2019-03-31T07:42:21.726Z,86.4
2019-03-31T07:43:15.011Z,86.2
2019-03-31T07:44:06.406Z,85.9
2019-03-31T07:44:56.275Z,85.6
2019-03-31T07:45:46.980Z,85.3
2019-03-31T07:46:40.223Z,85.1
2019-03-31T07:47:28.915Z,85
2019-03-31T07:48:20.358Z,84.9
2019-03-31T07:49:13.329Z,84.9
2019-03-31T07:50:04.461Z,84.9
2019-03-31T07:51:01.784Z,84.8
2019-03-31T07:52:03.420Z,84.7
2019-03-31T07:52:54.188Z,84.4
2019-03-31T07:53:48.487Z,84.3
2019-03-31T07:54:40.141Z,84.1
2019-03-31T07:55:33.128Z,83.8
2019-03-31T07:56:20.800Z,83.5
2019-03-31T07:57:10.884Z,83.5
2019-03-31T07:58:00.814Z,83.2
2019-03-31T07:58:50.872Z,82.5
2019-03-31T07:59:40.916Z,82.2
2019-03-31T08:00:30.845Z,81.9
2019-03-31T08:01:20.911Z,81.5
2019-03-31T08:02:10.832Z,81.2
2019-03-31T08:03:00.929Z,80.9
2019-03-31T08:03:50.816Z,80.3
2019-03-31T08:04:41.477Z,80.1
2019-03-31T08:05:37.529Z,79.8
2019-03-31T08:06:22.558Z,79.7
2019-03-31T08:07:13.046Z,79.7
2019-03-31T08:08:03.455Z,79.8
2019-03-31T08:08:56.726Z,79.8
2019-03-31T08:09:48.504Z,79.6
2019-03-31T08:10:38.486Z,79.2
2019-03-31T08:11:29.583Z,79
2019-03-31T08:12:19.120Z,78.6
2019-03-31T08:13:09.198Z,78.3
2019-03-31T08:13:59.252Z,78.1
2019-03-31T08:14:49.372Z,77.9
2019-03-31T08:15:39.512Z,77.4
2019-03-31T08:16:29.766Z,77.4
2019-03-31T08:17:19.306Z,77.1
2019-03-31T08:18:10.672Z,75.8
2019-03-31T08:19:01.019Z,75.2
2019-03-31T08:19:50.570Z,75.2
2019-03-31T08:20:40.799Z,75.1
2019-03-31T08:21:33.032Z,75
2019-03-31T08:22:20.745Z,73.6
2019-03-31T08:23:10.516Z,73.6
2019-03-31T08:24:01.566Z,73.4
2019-03-31T08:24:51.544Z,73
2019-03-31T08:25:41.741Z,72.4
2019-03-31T08:26:33.470Z,71.6
2019-03-31T08:27:26.510Z,71
2019-03-31T08:28:13.747Z,70.9
2019-03-31T08:29:03.501Z,70.2
2019-03-31T08:30:00.300Z,70.7
2019-03-31T08:30:43.427Z,70.6
2019-03-31T08:31:34.551Z,71.1
2019-03-31T08:32:23.404Z,70
2019-03-31T08:33:13.414Z,68.9
2019-03-31T08:34:03.824Z,68.3
2019-03-31T08:34:53.411Z,67.1
2019-03-31T08:35:47.439Z,67.7
2019-03-31T08:36:35.342Z,68
2019-03-31T08:37:23.981Z,68.4
2019-03-31T08:38:14.013Z,68.5
2019-03-31T08:39:04.652Z,67.9
2019-03-31T08:39:54.278Z,67.3
2019-03-31T08:40:44.237Z,66.5
2019-03-31T08:41:34.305Z,66.1
2019-03-31T08:42:24.294Z,66
2019-03-31T08:43:14.326Z,65.7
2019-03-31T08:44:04.342Z,65.9
2019-03-31T08:44:54.462Z,65.7
2019-03-31T08:45:44.282Z,65.6
2019-03-31T08:46:34.257Z,65.8
2019-03-31T08:47:24.254Z,65.2
2019-03-31T08:48:19.262Z,64.3
2019-03-31T08:49:17.285Z,64.7
2019-03-31T08:50:07.300Z,65.6
2019-03-31T08:50:57.300Z,64.6
2019-03-31T08:51:48.046Z,64.2
2019-03-31T08:52:40.283Z,64.6
2019-03-31T08:53:33.706Z,65.9
2019-03-31T08:54:24.271Z,65.9
2019-03-31T08:55:14.251Z,65.3
2019-03-31T08:56:04.243Z,65.4
2019-03-31T08:56:54.757Z,65.4
2019-03-31T08:57:45.991Z,65.7
2019-03-31T08:58:34.774Z,66.5
2019-03-31T08:59:24.802Z,66.1
2019-03-31T09:00:15.603Z,66.5
2019-03-31T09:01:05.606Z,66.5
2019-03-31T09:01:55.617Z,66
2019-03-31T09:02:46.735Z,65.8
2019-03-31T09:03:35.588Z,65.8
2019-03-31T09:04:25.643Z,65.8
2019-03-31T09:05:16.779Z,65.3
2019-03-31T09:06:06.792Z,66
2019-03-31T09:06:56.657Z,66.2
2019-03-31T09:07:48.317Z,66.5
2019-03-31T09:08:36.680Z,66.1
2019-03-31T09:09:26.666Z,66
2019-03-31T09:10:16.633Z,66.3
2019-03-31T09:11:06.747Z,66.4
2019-03-31T09:11:56.805Z,66.5
2019-03-31T09:12:48.805Z,66.7
2019-03-31T09:13:37.880Z,67
2019-03-31T09:14:27.811Z,67.2
2019-03-31T09:15:19.603Z,66.7
2019-03-31T09:16:09.990Z,66.3
2019-03-31T09:17:00.014Z,66.4
2019-03-31T09:17:53.981Z,66.4
2019-03-31T09:18:40.461Z,66.3
2019-03-31T09:19:30.049Z,66.2
2019-03-31T09:20:30.591Z,66.3
2019-03-31T09:22:24.113Z,66.9
2019-03-31T09:23:13.916Z,66.9
2019-03-31T09:24:04.327Z,67.1
2019-03-31T09:24:54.012Z,66.3
2019-03-31T09:25:47.438Z,66.1
2019-03-31T09:26:39.034Z,66.3
2019-03-31T09:27:31.030Z,66.9
2019-03-31T09:28:21.067Z,66.7
2019-03-31T09:29:11.064Z,66.3
2019-03-31T09:30:04.082Z,66.2
2019-03-31T09:30:55.130Z,66
2019-03-31T09:31:45.694Z,66.1
2019-03-31T09:32:48.235Z,66.2
2019-03-31T09:33:39.509Z,66.5
2019-03-31T09:34:29.247Z,66
2019-03-31T09:35:19.279Z,65.7
2019-03-31T09:36:16.256Z,65.3
2019-03-31T09:37:02.248Z,64.6
2019-03-31T09:37:52.350Z,64
2019-03-31T09:38:42.137Z,64.4
2019-03-31T09:39:32.090Z,64.9
2019-03-31T09:40:22.130Z,64.6
2019-03-31T09:41:29.545Z,64.5
2019-03-31T09:42:02.161Z,64.8
2019-03-31T09:42:52.164Z,64.8
2019-03-31T09:43:42.126Z,65.2
2019-03-31T09:44:35.843Z,64.8
2019-03-31T09:45:25.992Z,64.8
2019-03-31T09:46:16.012Z,65.1
2019-03-31T09:47:06.060Z,64.7
2019-03-31T09:47:56.144Z,64.7
2019-03-31T09:48:46.016Z,64.6
2019-03-31T09:49:36.000Z,64.2
2019-03-31T09:50:26.080Z,64.1
2019-03-31T09:51:16.055Z,64.3
2019-03-31T09:52:06.178Z,64.4
2019-03-31T09:52:57.238Z,64
2019-03-31T09:53:45.995Z,64
2019-03-31T09:54:36.713Z,63
2019-03-31T09:55:27.271Z,63.2
2019-03-31T09:56:17.248Z,63.5
2019-03-31T09:57:07.222Z,63.3
2019-03-31T09:57:59.396Z,63.2
2019-03-31T09:58:49.915Z,63.2
2019-03-31T09:59:40.191Z,62.9
2019-03-31T10:00:30.169Z,63.1
2019-03-31T10:01:20.261Z,63
2019-03-31T10:02:09.982Z,63.1
2019-03-31T10:03:01.275Z,63.2
2019-03-31T10:07:43.843Z,62.5
2019-03-31T10:08:34.385Z,62
2019-03-31T10:09:24.683Z,62.2
2019-03-31T10:10:14.676Z,62.4
2019-03-31T10:11:04.669Z,62.3
2019-03-31T10:11:56.438Z,61.9
2019-03-31T10:12:44.600Z,62.3
2019-03-31T10:13:34.614Z,62.2
2019-03-31T10:14:24.621Z,62.4
2019-03-31T10:15:15.397Z,62.3
2019-03-31T10:16:06.834Z,61.8
2019-03-31T10:16:56.171Z,61.7
2019-03-31T10:17:46.191Z,61.4
2019-03-31T10:18:36.131Z,61.3
2019-03-31T10:19:26.255Z,62.2
2019-03-31T10:20:16.164Z,61.6
2019-03-31T10:21:08.949Z,61.2
2019-03-31T10:22:00.790Z,61.3
2019-03-31T10:24:02.397Z,61.1
2019-03-31T10:24:50.742Z,61.1
2019-03-31T10:25:41.406Z,61.4
2019-03-31T10:26:32.474Z,61.4
2019-03-31T10:27:21.325Z,61.5
2019-03-31T10:30:45.729Z,60.8
2019-03-31T10:31:44.076Z,61.2
2019-03-31T10:32:34.311Z,61.3
2019-03-31T10:33:42.638Z,61.1
2019-03-31T10:34:32.921Z,61.3
2019-03-31T10:35:23.876Z,61.4
2019-03-31T10:36:13.217Z,61.2
2019-03-31T10:37:03.422Z,60.9
2019-03-31T10:38:18.374Z,60
2019-03-31T10:40:34.572Z,60.5
2019-03-31T10:42:47.058Z,60.3
2019-03-31T10:43:55.070Z,60.2
2019-03-31T10:44:45.644Z,60
2019-03-31T10:45:36.191Z,59.9
2019-03-31T10:46:28.177Z,59.7
2019-03-31T10:47:21.203Z,59.3
2019-03-31T10:48:20.008Z,59
2019-03-31T10:49:02.327Z,59.2
2019-03-31T10:49:53.371Z,59.3
2019-03-31T10:50:43.313Z,59.6
2019-03-31T10:51:33.297Z,59.7
2019-03-31T10:52:23.318Z,59.9
2019-03-31T10:53:13.289Z,60.1
2019-03-31T10:54:04.669Z,59.6
2019-03-31T10:54:53.840Z,59.8
2019-03-31T10:55:46.215Z,59.8
2019-03-31T10:56:36.172Z,60
2019-03-31T10:57:26.171Z,58.6
2019-03-31T10:58:16.237Z,58.5
2019-03-31T10:59:06.267Z,59.1
2019-03-31T10:59:56.288Z,59.6
2019-03-31T11:00:46.096Z,59.7
2019-03-31T11:01:36.959Z,59.7
2019-03-31T11:02:27.002Z,59.1
2019-03-31T11:03:17.562Z,58.9
2019-03-31T11:04:07.797Z,58.7
2019-03-31T11:04:58.634Z,58.2
2019-03-31T11:05:48.702Z,57.9
2019-03-31T11:06:38.729Z,57.6
2019-03-31T11:07:28.632Z,57.3
2019-03-31T11:08:19.159Z,57.2
2019-03-31T11:09:11.017Z,56.9
2019-03-31T11:10:00.550Z,57.5
2019-03-31T11:10:50.385Z,58
2019-03-31T11:11:40.221Z,57.7
2019-03-31T11:12:30.307Z,57.3
2019-03-31T11:13:20.248Z,57.3
2019-03-31T11:14:13.278Z,57.1
2019-03-31T11:15:00.637Z,56.8
2019-03-31T11:15:50.490Z,56.7
2019-03-31T11:16:41.390Z,56.7
2019-03-31T11:17:31.268Z,55
2019-03-31T11:18:22.272Z,55.7
2019-03-31T11:19:14.367Z,56.4
2019-03-31T11:20:02.483Z,56.1
2019-03-31T11:20:53.140Z,55.5
2019-03-31T11:21:45.550Z,55
2019-03-31T11:22:35.398Z,54.6
2019-03-31T11:23:25.449Z,54.2
2019-03-31T11:26:06.991Z,54.3
2019-03-31T11:27:03.148Z,53
2019-03-31T11:27:57.893Z,53.9
2019-03-31T11:28:52.775Z,53.3